Selkirk, Kansas
Current Conditions -  °F | °C
As of 3:35 PM on Wednesday 26 Nov 2014 (Local Time) from K3K3 Reporting Station
Clear Clear  
Wind Chill: 41°   Ceiling: Unl
Heat Index: 45°   Visibility: 10mi
Dew Point: 23°   Wind: 6mph
Humidity: 43%   Direction: 360°N
Pressure: 30.26"   Gusts: NA
Location:  38.484°N, 101.361°W
Report Text: K3K3 262135Z AUTO 36005KT 10SM CLR 07/M05 A3026 RMK AO2
Loading
Personal Weather Stations






























Interactive Weather Map New forecast layout! Learn more

10-Day Weather Forecast

Advertisements
Track Severe Weather on mobile